sensor_id;sensor_type;location;lat;lon;timestamp;temperature;humidity
44517;DHT22;30223;17.182;-96.766;2023-07-09T00:01:17;25.80;67.80
44517;DHT22;30223;17.182;-96.766;2023-07-09T00:03:45;25.80;67.80
44517;DHT22;30223;17.182;-96.766;2023-07-09T00:06:14;25.80;67.80
44517;DHT22;30223;17.182;-96.766;2023-07-09T00:08:44;25.70;67.80
44517;DHT22;30223;17.182;-96.766;2023-07-09T00:11:14;25.80;67.80
44517;DHT22;30223;17.182;-96.766;2023-07-09T00:13:42;25.70;67.80
44517;DHT22;30223;17.182;-96.766;2023-07-09T00:16:35;25.70;67.80
44517;DHT22;30223;17.182;-96.766;2023-07-09T00:19:04;25.70;67.70
44517;DHT22;30223;17.182;-96.766;2023-07-09T00:21:30;25.70;67.70
44517;DHT22;30223;17.182;-96.766;2023-07-09T00:24:00;25.70;67.80
44517;DHT22;30223;17.182;-96.766;2023-07-09T00:26:31;25.70;67.70
44517;DHT22;30223;17.182;-96.766;2023-07-09T00:28:59;25.70;67.70
44517;DHT22;30223;17.182;-96.766;2023-07-09T00:31:27;25.70;67.70
44517;DHT22;30223;17.182;-96.766;2023-07-09T00:33:53;25.70;67.70
44517;DHT22;30223;17.182;-96.766;2023-07-09T00:36:31;25.70;67.80
44517;DHT22;30223;17.182;-96.766;2023-07-09T00:38:58;25.70;67.80
44517;DHT22;30223;17.182;-96.766;2023-07-09T00:41:37;25.70;67.80
44517;DHT22;30223;17.182;-96.766;2023-07-09T00:44:27;25.70;67.70
44517;DHT22;30223;17.182;-96.766;2023-07-09T00:49:32;25.70;67.80
44517;DHT22;30223;17.182;-96.766;2023-07-09T00:52:25;25.70;67.80
44517;DHT22;30223;17.182;-96.766;2023-07-09T00:54:50;25.70;67.80
44517;DHT22;30223;17.182;-96.766;2023-07-09T00:57:18;25.70;67.80
44517;DHT22;30223;17.182;-96.766;2023-07-09T00:59:52;25.70;67.80
44517;DHT22;30223;17.182;-96.766;2023-07-09T01:02:21;25.70;67.80
44517;DHT22;30223;17.182;-96.766;2023-07-09T01:04:56;25.70;67.80
44517;DHT22;30223;17.182;-96.766;2023-07-09T01:07:30;25.70;67.80
44517;DHT22;30223;17.182;-96.766;2023-07-09T01:09:57;25.70;67.80
44517;DHT22;30223;17.182;-96.766;2023-07-09T01:12:24;25.70;67.90
44517;DHT22;30223;17.182;-96.766;2023-07-09T01:14:54;25.70;67.80
44517;DHT22;30223;17.182;-96.766;2023-07-09T01:17:26;25.60;67.90
44517;DHT22;30223;17.182;-96.766;2023-07-09T01:19:53;25.60;67.80
44517;DHT22;30223;17.182;-96.766;2023-07-09T01:22:24;25.70;68.50
44517;DHT22;30223;17.182;-96.766;2023-07-09T01:25:02;25.70;68.50
44517;DHT22;30223;17.182;-96.766;2023-07-09T01:27:43;25.80;69.50
44517;DHT22;30223;17.182;-96.766;2023-07-09T01:30:40;25.90;68.80
44517;DHT22;30223;17.182;-96.766;2023-07-09T01:33:07;26.00;68.60
44517;DHT22;30223;17.182;-96.766;2023-07-09T01:35:38;26.00;68.20
44517;DHT22;30223;17.182;-96.766;2023-07-09T01:38:09;26.00;68.00
44517;DHT22;30223;17.182;-96.766;2023-07-09T01:40:36;26.10;68.10
44517;DHT22;30223;17.182;-96.766;2023-07-09T01:43:04;26.10;67.80
44517;DHT22;30223;17.182;-96.766;2023-07-09T01:45:35;26.10;67.60
44517;DHT22;30223;17.182;-96.766;2023-07-09T01:48:03;26.20;67.80
44517;DHT22;30223;17.182;-96.766;2023-07-09T01:50:30;26.10;66.90
44517;DHT22;30223;17.182;-96.766;2023-07-09T01:52:57;26.10;66.80
44517;DHT22;30223;17.182;-96.766;2023-07-09T01:55:25;26.10;67.10
44517;DHT22;30223;17.182;-96.766;2023-07-09T01:57:51;26.10;67.00
44517;DHT22;30223;17.182;-96.766;2023-07-09T02:00:18;26.20;67.00
44517;DHT22;30223;17.182;-96.766;2023-07-09T02:02:46;26.20;66.50
44517;DHT22;30223;17.182;-96.766;2023-07-09T02:05:15;26.20;65.80
44517;DHT22;30223;17.182;-96.766;2023-07-09T02:07:43;26.20;65.60
44517;DHT22;30223;17.182;-96.766;2023-07-09T02:10:11;26.20;65.40
44517;DHT22;30223;17.182;-96.766;2023-07-09T02:12:38;26.20;65.80
44517;DHT22;30223;17.182;-96.766;2023-07-09T02:15:06;26.20;65.80
44517;DHT22;30223;17.182;-96.766;2023-07-09T02:17:33;26.20;65.80
44517;DHT22;30223;17.182;-96.766;2023-07-09T02:19:59;26.10;65.70
44517;DHT22;30223;17.182;-96.766;2023-07-09T02:22:26;26.10;65.70
44517;DHT22;30223;17.182;-96.766;2023-07-09T02:24:53;26.10;65.50
44517;DHT22;30223;17.182;-96.766;2023-07-09T02:27:21;26.00;65.00
44517;DHT22;30223;17.182;-96.766;2023-07-09T02:29:48;26.00;65.10
44517;DHT22;30223;17.182;-96.766;2023-07-09T02:32:22;26.00;65.00
44517;DHT22;30223;17.182;-96.766;2023-07-09T02:34:49;25.90;65.00
44517;DHT22;30223;17.182;-96.766;2023-07-09T02:37:20;25.90;64.80
44517;DHT22;30223;17.182;-96.766;2023-07-09T02:39:47;25.90;64.70
44517;DHT22;30223;17.182;-96.766;2023-07-09T02:42:16;25.80;64.70
44517;DHT22;30223;17.182;-96.766;2023-07-09T02:44:44;25.80;65.00
44517;DHT22;30223;17.182;-96.766;2023-07-09T02:47:11;25.80;65.10
44517;DHT22;30223;17.182;-96.766;2023-07-09T02:49:39;25.80;65.20
44517;DHT22;30223;17.182;-96.766;2023-07-09T02:52:09;25.80;65.30
44517;DHT22;30223;17.182;-96.766;2023-07-09T02:54:36;25.70;65.20
44517;DHT22;30223;17.182;-96.766;2023-07-09T02:57:03;25.70;65.20
44517;DHT22;30223;17.182;-96.766;2023-07-09T02:59:30;25.70;65.30
44517;DHT22;30223;17.182;-96.766;2023-07-09T03:01:58;25.70;65.30
44517;DHT22;30223;17.182;-96.766;2023-07-09T03:04:29;25.70;65.30
44517;DHT22;30223;17.182;-96.766;2023-07-09T03:06:57;25.70;65.40
44517;DHT22;30223;17.182;-96.766;2023-07-09T03:09:26;25.70;65.50
44517;DHT22;30223;17.182;-96.766;2023-07-09T03:11:54;25.70;65.50
44517;DHT22;30223;17.182;-96.766;2023-07-09T03:14:20;25.70;65.50
44517;DHT22;30223;17.182;-96.766;2023-07-09T03:16:47;25.70;65.40
44517;DHT22;30223;17.182;-96.766;2023-07-09T03:19:14;25.70;65.50
44517;DHT22;30223;17.182;-96.766;2023-07-09T03:21:41;25.70;65.50
44517;DHT22;30223;17.182;-96.766;2023-07-09T03:24:08;25.70;65.50
44517;DHT22;30223;17.182;-96.766;2023-07-09T03:26:35;25.70;65.50
44517;DHT22;30223;17.182;-96.766;2023-07-09T03:29:02;25.70;65.50
44517;DHT22;30223;17.182;-96.766;2023-07-09T03:31:30;25.70;65.50
44517;DHT22;30223;17.182;-96.766;2023-07-09T03:34:01;25.70;65.50
44517;DHT22;30223;17.182;-96.766;2023-07-09T03:36:28;25.70;65.60
44517;DHT22;30223;17.182;-96.766;2023-07-09T03:38:55;25.70;65.70
44517;DHT22;30223;17.182;-96.766;2023-07-09T03:41:22;25.60;65.50
44517;DHT22;30223;17.182;-96.766;2023-07-09T03:43:48;25.70;66.10
44517;DHT22;30223;17.182;-96.766;2023-07-09T03:46:16;25.60;65.50
44517;DHT22;30223;17.182;-96.766;2023-07-09T03:48:43;25.60;65.60
44517;DHT22;30223;17.182;-96.766;2023-07-09T03:51:10;25.70;65.80
44517;DHT22;30223;17.182;-96.766;2023-07-09T03:53:37;25.60;65.70
44517;DHT22;30223;17.182;-96.766;2023-07-09T03:56:03;25.60;65.70
44517;DHT22;30223;17.182;-96.766;2023-07-09T03:58:30;25.60;65.70
44517;DHT22;30223;17.182;-96.766;2023-07-09T04:00:57;25.60;65.70
44517;DHT22;30223;17.182;-96.766;2023-07-09T04:03:24;25.60;65.70
44517;DHT22;30223;17.182;-96.766;2023-07-09T04:05:51;25.60;65.80
44517;DHT22;30223;17.182;-96.766;2023-07-09T04:08:18;25.50;65.70
44517;DHT22;30223;17.182;-96.766;2023-07-09T04:10:44;25.50;65.70
44517;DHT22;30223;17.182;-96.766;2023-07-09T04:13:11;25.50;65.70
44517;DHT22;30223;17.182;-96.766;2023-07-09T04:15:38;25.50;65.60
44517;DHT22;30223;17.182;-96.766;2023-07-09T04:18:05;25.50;65.70
44517;DHT22;30223;17.182;-96.766;2023-07-09T04:20:32;25.50;65.70
44517;DHT22;30223;17.182;-96.766;2023-07-09T04:23:01;25.50;65.70
44517;DHT22;30223;17.182;-96.766;2023-07-09T04:25:28;25.50;65.80
44517;DHT22;30223;17.182;-96.766;2023-07-09T04:27:55;25.50;66.00
44517;DHT22;30223;17.182;-96.766;2023-07-09T04:30:22;25.50;66.00
44517;DHT22;30223;17.182;-96.766;2023-07-09T04:32:49;25.50;66.00
44517;DHT22;30223;17.182;-96.766;2023-07-09T04:35:16;25.50;67.70
44517;DHT22;30223;17.182;-96.766;2023-07-09T04:37:43;25.60;66.20
44517;DHT22;30223;17.182;-96.766;2023-07-09T04:40:11;25.50;66.10
44517;DHT22;30223;17.182;-96.766;2023-07-09T04:42:39;25.50;66.30
44517;DHT22;30223;17.182;-96.766;2023-07-09T04:45:07;25.50;67.00
44517;DHT22;30223;17.182;-96.766;2023-07-09T04:47:35;25.50;66.90
44517;DHT22;30223;17.182;-96.766;2023-07-09T04:50:03;25.50;66.70
44517;DHT22;30223;17.182;-96.766;2023-07-09T04:52:30;25.50;66.50
44517;DHT22;30223;17.182;-96.766;2023-07-09T04:54:57;25.50;66.50
44517;DHT22;30223;17.182;-96.766;2023-07-09T04:57:26;25.50;66.70
44517;DHT22;30223;17.182;-96.766;2023-07-09T04:59:53;25.50;66.70
44517;DHT22;30223;17.182;-96.766;2023-07-09T05:02:23;25.50;66.10
44517;DHT22;30223;17.182;-96.766;2023-07-09T05:04:53;25.50;66.70
44517;DHT22;30223;17.182;-96.766;2023-07-09T05:07:20;25.50;66.90
44517;DHT22;30223;17.182;-96.766;2023-07-09T05:09:47;25.50;67.20
44517;DHT22;30223;17.182;-96.766;2023-07-09T05:12:14;25.50;68.10
44517;DHT22;30223;17.182;-96.766;2023-07-09T05:14:41;25.50;67.40
44517;DHT22;30223;17.182;-96.766;2023-07-09T05:17:08;25.40;67.30
44517;DHT22;30223;17.182;-96.766;2023-07-09T05:19:36;25.40;67.30
44517;DHT22;30223;17.182;-96.766;2023-07-09T05:22:03;25.40;67.30
44517;DHT22;30223;17.182;-96.766;2023-07-09T05:24:30;25.40;67.40
44517;DHT22;30223;17.182;-96.766;2023-07-09T05:26:56;25.40;67.50
44517;DHT22;30223;17.182;-96.766;2023-07-09T05:29:24;25.30;67.40
44517;DHT22;30223;17.182;-96.766;2023-07-09T05:31:50;25.30;67.50
44517;DHT22;30223;17.182;-96.766;2023-07-09T05:34:17;25.30;67.60
44517;DHT22;30223;17.182;-96.766;2023-07-09T05:36:44;25.30;67.70
44517;DHT22;30223;17.182;-96.766;2023-07-09T05:39:11;25.30;67.70
44517;DHT22;30223;17.182;-96.766;2023-07-09T05:41:38;25.30;67.70
44517;DHT22;30223;17.182;-96.766;2023-07-09T05:44:04;25.30;67.70
44517;DHT22;30223;17.182;-96.766;2023-07-09T05:46:35;25.30;67.70
44517;DHT22;30223;17.182;-96.766;2023-07-09T05:49:05;25.30;68.50
44517;DHT22;30223;17.182;-96.766;2023-07-09T05:51:33;25.30;67.80
44517;DHT22;30223;17.182;-96.766;2023-07-09T05:53:59;25.30;67.70
44517;DHT22;30223;17.182;-96.766;2023-07-09T05:56:27;25.30;68.40
44517;DHT22;30223;17.182;-96.766;2023-07-09T05:58:54;25.30;68.00
44517;DHT22;30223;17.182;-96.766;2023-07-09T06:01:23;25.40;68.10
44517;DHT22;30223;17.182;-96.766;2023-07-09T06:03:50;25.40;68.10
44517;DHT22;30223;17.182;-96.766;2023-07-09T06:06:16;25.50;68.00
44517;DHT22;30223;17.182;-96.766;2023-07-09T06:08:43;25.50;68.00
44517;DHT22;30223;17.182;-96.766;2023-07-09T06:11:10;25.60;68.00
44517;DHT22;30223;17.182;-96.766;2023-07-09T06:13:37;25.70;67.80
44517;DHT22;30223;17.182;-96.766;2023-07-09T06:16:04;25.70;67.70
44517;DHT22;30223;17.182;-96.766;2023-07-09T06:18:31;25.80;67.60
44517;DHT22;30223;17.182;-96.766;2023-07-09T06:21:02;25.80;67.40
44517;DHT22;30223;17.182;-96.766;2023-07-09T06:23:30;25.90;67.10
44517;DHT22;30223;17.182;-96.766;2023-07-09T06:25:57;25.90;66.90
44517;DHT22;30223;17.182;-96.766;2023-07-09T06:28:26;26.00;66.90
44517;DHT22;30223;17.182;-96.766;2023-07-09T06:30:55;26.00;66.70
44517;DHT22;30223;17.182;-96.766;2023-07-09T06:33:22;26.00;66.50
44517;DHT22;30223;17.182;-96.766;2023-07-09T06:35:52;26.00;66.20
44517;DHT22;30223;17.182;-96.766;2023-07-09T06:38:20;25.90;66.10
44517;DHT22;30223;17.182;-96.766;2023-07-09T06:40:47;25.90;66.10
44517;DHT22;30223;17.182;-96.766;2023-07-09T06:43:14;25.80;66.10
44517;DHT22;30223;17.182;-96.766;2023-07-09T06:48:16;25.70;66.10
44517;DHT22;30223;17.182;-96.766;2023-07-09T06:50:43;25.60;66.10
44517;DHT22;30223;17.182;-96.766;2023-07-09T06:53:10;25.50;66.10
44517;DHT22;30223;17.182;-96.766;2023-07-09T06:55:37;25.50;66.30
44517;DHT22;30223;17.182;-96.766;2023-07-09T06:58:03;25.40;66.30
44517;DHT22;30223;17.182;-96.766;2023-07-09T07:00:30;25.40;66.30
44517;DHT22;30223;17.182;-96.766;2023-07-09T07:02:57;25.30;66.40
44517;DHT22;30223;17.182;-96.766;2023-07-09T07:05:24;25.30;66.60
44517;DHT22;30223;17.182;-96.766;2023-07-09T07:07:51;25.20;66.60
44517;DHT22;30223;17.182;-96.766;2023-07-09T07:10:19;25.20;66.70
44517;DHT22;30223;17.182;-96.766;2023-07-09T07:12:47;25.10;66.80
44517;DHT22;30223;17.182;-96.766;2023-07-09T07:15:16;25.10;66.90
44517;DHT22;30223;17.182;-96.766;2023-07-09T07:17:44;25.10;66.90
44517;DHT22;30223;17.182;-96.766;2023-07-09T07:20:13;25.00;67.00
44517;DHT22;30223;17.182;-96.766;2023-07-09T07:22:40;25.00;67.10
44517;DHT22;30223;17.182;-96.766;2023-07-09T07:25:07;25.00;67.10
44517;DHT22;30223;17.182;-96.766;2023-07-09T07:27:35;24.90;67.20
44517;DHT22;30223;17.182;-96.766;2023-07-09T07:30:02;24.90;67.30
44517;DHT22;30223;17.182;-96.766;2023-07-09T07:32:30;24.90;67.30
44517;DHT22;30223;17.182;-96.766;2023-07-09T07:34:56;24.90;67.40
44517;DHT22;30223;17.182;-96.766;2023-07-09T07:37:23;24.90;67.50
44517;DHT22;30223;17.182;-96.766;2023-07-09T07:39:50;24.90;67.70
44517;DHT22;30223;17.182;-96.766;2023-07-09T07:42:17;24.80;67.60
44517;DHT22;30223;17.182;-96.766;2023-07-09T07:44:44;24.80;67.70
44517;DHT22;30223;17.182;-96.766;2023-07-09T07:47:11;24.80;67.50
44517;DHT22;30223;17.182;-96.766;2023-07-09T07:49:40;24.80;67.80
44517;DHT22;30223;17.182;-96.766;2023-07-09T07:52:07;24.80;67.80
44517;DHT22;30223;17.182;-96.766;2023-07-09T07:54:34;24.70;67.90
44517;DHT22;30223;17.182;-96.766;2023-07-09T07:57:01;24.70;67.80
44517;DHT22;30223;17.182;-96.766;2023-07-09T07:59:28;24.70;67.90
44517;DHT22;30223;17.182;-96.766;2023-07-09T08:01:55;24.70;67.90
44517;DHT22;30223;17.182;-96.766;2023-07-09T08:04:22;24.70;67.80
44517;DHT22;30223;17.182;-96.766;2023-07-09T08:06:49;24.70;68.00
44517;DHT22;30223;17.182;-96.766;2023-07-09T08:09:16;24.60;67.90
44517;DHT22;30223;17.182;-96.766;2023-07-09T08:11:42;24.60;67.90
44517;DHT22;30223;17.182;-96.766;2023-07-09T08:14:10;24.60;67.90
44517;DHT22;30223;17.182;-96.766;2023-07-09T08:16:38;24.60;68.00
44517;DHT22;30223;17.182;-96.766;2023-07-09T08:19:05;24.60;68.00
44517;DHT22;30223;17.182;-96.766;2023-07-09T08:21:31;24.60;68.00
44517;DHT22;30223;17.182;-96.766;2023-07-09T08:23:58;24.50;68.10
44517;DHT22;30223;17.182;-96.766;2023-07-09T08:26:25;24.60;68.10
44517;DHT22;30223;17.182;-96.766;2023-07-09T08:28:53;24.50;68.00
44517;DHT22;30223;17.182;-96.766;2023-07-09T08:31:19;24.50;68.10
44517;DHT22;30223;17.182;-96.766;2023-07-09T08:33:46;24.50;68.10
44517;DHT22;30223;17.182;-96.766;2023-07-09T08:36:13;24.50;68.00
44517;DHT22;30223;17.182;-96.766;2023-07-09T08:38:40;24.50;68.00
44517;DHT22;30223;17.182;-96.766;2023-07-09T08:41:08;24.50;68.60
44517;DHT22;30223;17.182;-96.766;2023-07-09T08:44:01;24.50;67.90
44517;DHT22;30223;17.182;-96.766;2023-07-09T08:47:02;24.50;68.10
44517;DHT22;30223;17.182;-96.766;2023-07-09T08:49:43;24.40;67.70
44517;DHT22;30223;17.182;-96.766;2023-07-09T08:54:48;24.40;67.80
44517;DHT22;30223;17.182;-96.766;2023-07-09T08:57:29;24.40;67.70
44517;DHT22;30223;17.182;-96.766;2023-07-09T09:00:31;24.40;67.80
44517;DHT22;30223;17.182;-96.766;2023-07-09T09:03:10;24.40;68.00
44517;DHT22;30223;17.182;-96.766;2023-07-09T09:05:41;24.30;67.70
44517;DHT22;30223;17.182;-96.766;2023-07-09T09:08:33;24.30;67.80
44517;DHT22;30223;17.182;-96.766;2023-07-09T09:13:38;24.30;67.60
44517;DHT22;30223;17.182;-96.766;2023-07-09T09:16:22;24.30;67.70
44517;DHT22;30223;17.182;-96.766;2023-07-09T09:18:50;24.30;67.60
44517;DHT22;30223;17.182;-96.766;2023-07-09T09:21:24;24.30;67.70
44517;DHT22;30223;17.182;-96.766;2023-07-09T09:24:03;24.30;67.60
44517;DHT22;30223;17.182;-96.766;2023-07-09T09:26:36;24.30;67.70
44517;DHT22;30223;17.182;-96.766;2023-07-09T09:29:13;24.30;67.80
44517;DHT22;30223;17.182;-96.766;2023-07-09T09:31:45;24.30;67.60
44517;DHT22;30223;17.182;-96.766;2023-07-09T09:34:20;24.30;67.50
44517;DHT22;30223;17.182;-96.766;2023-07-09T09:36:48;24.20;67.50
44517;DHT22;30223;17.182;-96.766;2023-07-09T09:39:16;24.20;67.70
44517;DHT22;30223;17.182;-96.766;2023-07-09T09:41:44;24.20;67.60
44517;DHT22;30223;17.182;-96.766;2023-07-09T09:44:19;24.20;67.50
44517;DHT22;30223;17.182;-96.766;2023-07-09T09:46:48;24.20;67.40
44517;DHT22;30223;17.182;-96.766;2023-07-09T09:49:16;24.20;67.50
44517;DHT22;30223;17.182;-96.766;2023-07-09T09:51:45;24.20;67.40
44517;DHT22;30223;17.182;-96.766;2023-07-09T09:54:18;24.20;67.40
44517;DHT22;30223;17.182;-96.766;2023-07-09T09:56:49;24.20;67.40
44517;DHT22;30223;17.182;-96.766;2023-07-09T09:59:30;24.20;67.40
44517;DHT22;30223;17.182;-96.766;2023-07-09T10:02:00;24.20;67.40
44517;DHT22;30223;17.182;-96.766;2023-07-09T10:04:27;24.20;67.40
44517;DHT22;30223;17.182;-96.766;2023-07-09T10:07:03;24.20;67.40
44517;DHT22;30223;17.182;-96.766;2023-07-09T10:09:52;24.20;67.30
44517;DHT22;30223;17.182;-96.766;2023-07-09T10:16:26;24.10;67.30
44517;DHT22;30223;17.182;-96.766;2023-07-09T10:19:23;24.10;67.20
44517;DHT22;30223;17.182;-96.766;2023-07-09T10:21:47;24.10;67.30
44517;DHT22;30223;17.182;-96.766;2023-07-09T10:24:42;24.10;67.20
44517;DHT22;30223;17.182;-96.766;2023-07-09T10:27:16;24.10;67.20
44517;DHT22;30223;17.182;-96.766;2023-07-09T10:33:01;24.10;67.30
44517;DHT22;30223;17.182;-96.766;2023-07-09T10:38:21;24.10;67.20
44517;DHT22;30223;17.182;-96.766;2023-07-09T10:40:53;24.10;67.20
44517;DHT22;30223;17.182;-96.766;2023-07-09T10:43:46;24.00;67.20
44517;DHT22;30223;17.182;-96.766;2023-07-09T10:46:17;24.00;67.20
44517;DHT22;30223;17.182;-96.766;2023-07-09T10:48:47;24.00;67.20
44517;DHT22;30223;17.182;-96.766;2023-07-09T10:51:32;24.00;67.20
44517;DHT22;30223;17.182;-96.766;2023-07-09T10:56:56;24.00;67.20
44517;DHT22;30223;17.182;-96.766;2023-07-09T10:59:43;24.00;67.20
44517;DHT22;30223;17.182;-96.766;2023-07-09T11:02:25;24.00;67.20
44517;DHT22;30223;17.182;-96.766;2023-07-09T11:04:56;24.00;67.10
44517;DHT22;30223;17.182;-96.766;2023-07-09T11:10:03;23.90;67.10
44517;DHT22;30223;17.182;-96.766;2023-07-09T11:12:40;23.90;67.10
44517;DHT22;30223;17.182;-96.766;2023-07-09T11:15:13;23.90;67.10
44517;DHT22;30223;17.182;-96.766;2023-07-09T11:17:45;23.90;67.10
44517;DHT22;30223;17.182;-96.766;2023-07-09T11:20:25;23.90;67.10
44517;DHT22;30223;17.182;-96.766;2023-07-09T11:23:01;23.90;67.10
44517;DHT22;30223;17.182;-96.766;2023-07-09T11:28:08;23.90;67.00
44517;DHT22;30223;17.182;-96.766;2023-07-09T11:30:47;23.90;67.10
44517;DHT22;30223;17.182;-96.766;2023-07-09T11:33:28;23.90;67.10
44517;DHT22;30223;17.182;-96.766;2023-07-09T11:36:25;23.90;67.00
44517;DHT22;30223;17.182;-96.766;2023-07-09T11:38:53;23.90;67.10
44517;DHT22;30223;17.182;-96.766;2023-07-09T11:41:41;23.90;67.00
44517;DHT22;30223;17.182;-96.766;2023-07-09T11:44:20;23.90;67.00
44517;DHT22;30223;17.182;-96.766;2023-07-09T11:46:52;23.90;67.10
44517;DHT22;30223;17.182;-96.766;2023-07-09T11:49:25;23.90;67.00
44517;DHT22;30223;17.182;-96.766;2023-07-09T11:51:59;23.90;67.00
44517;DHT22;30223;17.182;-96.766;2023-07-09T11:54:27;23.80;67.00
44517;DHT22;30223;17.182;-96.766;2023-07-09T11:56:57;23.80;67.00
44517;DHT22;30223;17.182;-96.766;2023-07-09T11:59:24;23.80;67.00
44517;DHT22;30223;17.182;-96.766;2023-07-09T12:01:52;23.80;67.00
44517;DHT22;30223;17.182;-96.766;2023-07-09T12:04:34;23.80;67.00
44517;DHT22;30223;17.182;-96.766;2023-07-09T12:07:02;23.80;67.00
44517;DHT22;30223;17.182;-96.766;2023-07-09T12:09:39;23.80;67.00
44517;DHT22;30223;17.182;-96.766;2023-07-09T12:12:26;23.80;66.90
44517;DHT22;30223;17.182;-96.766;2023-07-09T12:14:55;23.80;67.00
44517;DHT22;30223;17.182;-96.766;2023-07-09T12:17:27;23.80;67.00
44517;DHT22;30223;17.182;-96.766;2023-07-09T12:19:56;23.70;66.90
44517;DHT22;30223;17.182;-96.766;2023-07-09T12:22:23;23.80;66.90
44517;DHT22;30223;17.182;-96.766;2023-07-09T12:24:50;23.80;66.90
44517;DHT22;30223;17.182;-96.766;2023-07-09T12:27:25;23.70;67.00
44517;DHT22;30223;17.182;-96.766;2023-07-09T12:29:57;23.80;67.00
44517;DHT22;30223;17.182;-96.766;2023-07-09T12:32:24;23.70;66.90
44517;DHT22;30223;17.182;-96.766;2023-07-09T12:34:55;23.70;66.90
44517;DHT22;30223;17.182;-96.766;2023-07-09T12:37:23;23.70;66.90
44517;DHT22;30223;17.182;-96.766;2023-07-09T12:39:51;23.70;66.90
44517;DHT22;30223;17.182;-96.766;2023-07-09T12:42:35;23.70;66.90
44517;DHT22;30223;17.182;-96.766;2023-07-09T12:45:02;23.70;66.90
44517;DHT22;30223;17.182;-96.766;2023-07-09T12:47:30;23.70;66.90
44517;DHT22;30223;17.182;-96.766;2023-07-09T12:52:56;23.70;66.90
44517;DHT22;30223;17.182;-96.766;2023-07-09T12:55:27;23.70;66.90
44517;DHT22;30223;17.182;-96.766;2023-07-09T12:57:58;23.70;66.90
44517;DHT22;30223;17.182;-96.766;2023-07-09T13:00:30;23.60;66.80
44517;DHT22;30223;17.182;-96.766;2023-07-09T13:02:58;23.70;66.80
44517;DHT22;30223;17.182;-96.766;2023-07-09T13:05:26;23.70;66.90
44517;DHT22;30223;17.182;-96.766;2023-07-09T13:07:58;23.70;66.80
44517;DHT22;30223;17.182;-96.766;2023-07-09T13:10:31;23.60;66.80
44517;DHT22;30223;17.182;-96.766;2023-07-09T13:13:04;23.70;66.80
44517;DHT22;30223;17.182;-96.766;2023-07-09T13:15:31;23.70;66.80
44517;DHT22;30223;17.182;-96.766;2023-07-09T13:18:06;23.70;66.80
44517;DHT22;30223;17.182;-96.766;2023-07-09T13:20:34;23.60;66.80
44517;DHT22;30223;17.182;-96.766;2023-07-09T13:23:04;23.70;66.80
44517;DHT22;30223;17.182;-96.766;2023-07-09T13:25:34;23.60;66.70
44517;DHT22;30223;17.182;-96.766;2023-07-09T13:28:02;23.60;66.70
44517;DHT22;30223;17.182;-96.766;2023-07-09T13:30:29;23.60;66.70
44517;DHT22;30223;17.182;-96.766;2023-07-09T13:32:57;23.60;66.70
44517;DHT22;30223;17.182;-96.766;2023-07-09T13:35:25;23.60;66.70
44517;DHT22;30223;17.182;-96.766;2023-07-09T13:37:52;23.70;66.70
44517;DHT22;30223;17.182;-96.766;2023-07-09T13:40:18;23.60;66.60
44517;DHT22;30223;17.182;-96.766;2023-07-09T13:42:49;23.60;66.60
44517;DHT22;30223;17.182;-96.766;2023-07-09T13:45:23;23.70;66.50
44517;DHT22;30223;17.182;-96.766;2023-07-09T13:47:51;23.70;66.50
44517;DHT22;30223;17.182;-96.766;2023-07-09T13:50:20;23.70;66.50
44517;DHT22;30223;17.182;-96.766;2023-07-09T13:52:47;23.60;66.50
44517;DHT22;30223;17.182;-96.766;2023-07-09T13:55:22;23.60;66.40
44517;DHT22;30223;17.182;-96.766;2023-07-09T13:57:50;23.60;66.50
44517;DHT22;30223;17.182;-96.766;2023-07-09T14:00:17;23.60;66.50
44517;DHT22;30223;17.182;-96.766;2023-07-09T14:02:44;23.60;66.50
44517;DHT22;30223;17.182;-96.766;2023-07-09T14:05:13;23.60;66.50
44517;DHT22;30223;17.182;-96.766;2023-07-09T14:07:41;23.60;67.10
44517;DHT22;30223;17.182;-96.766;2023-07-09T14:10:15;23.60;66.60
44517;DHT22;30223;17.182;-96.766;2023-07-09T14:12:46;23.60;66.60
44517;DHT22;30223;17.182;-96.766;2023-07-09T14:15:17;23.50;66.60
44517;DHT22;30223;17.182;-96.766;2023-07-09T14:17:45;23.50;66.60
44517;DHT22;30223;17.182;-96.766;2023-07-09T14:20:14;23.60;66.50
44517;DHT22;30223;17.182;-96.766;2023-07-09T14:22:42;23.60;66.50
44517;DHT22;30223;17.182;-96.766;2023-07-09T14:25:18;23.60;66.50
44517;DHT22;30223;17.182;-96.766;2023-07-09T14:27:46;23.60;66.40
44517;DHT22;30223;17.182;-96.766;2023-07-09T14:30:17;23.60;66.50
44517;DHT22;30223;17.182;-96.766;2023-07-09T14:32:50;23.60;66.50
44517;DHT22;30223;17.182;-96.766;2023-07-09T14:35:23;23.60;66.40
44517;DHT22;30223;17.182;-96.766;2023-07-09T14:37:52;23.60;66.50
44517;DHT22;30223;17.182;-96.766;2023-07-09T14:40:21;23.60;66.40
44517;DHT22;30223;17.182;-96.766;2023-07-09T14:42:49;23.60;66.50
44517;DHT22;30223;17.182;-96.766;2023-07-09T14:45:19;23.50;66.50
44517;DHT22;30223;17.182;-96.766;2023-07-09T14:47:47;23.60;66.60
44517;DHT22;30223;17.182;-96.766;2023-07-09T14:50:14;23.50;66.50
44517;DHT22;30223;17.182;-96.766;2023-07-09T14:52:42;23.50;66.50
44517;DHT22;30223;17.182;-96.766;2023-07-09T14:55:20;23.60;66.50
44517;DHT22;30223;17.182;-96.766;2023-07-09T14:57:48;23.50;66.50
44517;DHT22;30223;17.182;-96.766;2023-07-09T15:00:20;23.50;66.50
44517;DHT22;30223;17.182;-96.766;2023-07-09T15:02:50;23.50;66.50
44517;DHT22;30223;17.182;-96.766;2023-07-09T15:05:23;23.60;66.90
44517;DHT22;30223;17.182;-96.766;2023-07-09T15:07:50;23.50;66.90
44517;DHT22;30223;17.182;-96.766;2023-07-09T15:10:24;23.50;67.20
44517;DHT22;30223;17.182;-96.766;2023-07-09T15:12:53;23.50;67.30
44517;DHT22;30223;17.182;-96.766;2023-07-09T15:15:30;23.50;67.50
44517;DHT22;30223;17.182;-96.766;2023-07-09T15:18:00;23.50;67.50
44517;DHT22;30223;17.182;-96.766;2023-07-09T15:20:29;23.50;67.50
44517;DHT22;30223;17.182;-96.766;2023-07-09T15:22:58;23.50;67.40
44517;DHT22;30223;17.182;-96.766;2023-07-09T15:25:30;23.50;67.30
44517;DHT22;30223;17.182;-96.766;2023-07-09T15:27:57;23.50;67.30
44517;DHT22;30223;17.182;-96.766;2023-07-09T15:30:26;23.50;67.80
44517;DHT22;30223;17.182;-96.766;2023-07-09T15:32:56;23.50;68.30
44517;DHT22;30223;17.182;-96.766;2023-07-09T15:35:23;23.50;68.40
44517;DHT22;30223;17.182;-96.766;2023-07-09T15:37:52;23.50;68.30
44517;DHT22;30223;17.182;-96.766;2023-07-09T15:40:22;23.50;68.20
44517;DHT22;30223;17.182;-96.766;2023-07-09T15:42:52;23.50;68.20
44517;DHT22;30223;17.182;-96.766;2023-07-09T15:45:20;23.50;68.20
44517;DHT22;30223;17.182;-96.766;2023-07-09T15:47:49;23.50;68.20
44517;DHT22;30223;17.182;-96.766;2023-07-09T15:50:22;23.50;68.20
44517;DHT22;30223;17.182;-96.766;2023-07-09T15:52:51;23.40;68.20